Time;durP1;ratioP1;P1;durP2;ratioP2;P2;SDS_P1;SDS_P2;PMS_P1;PMS_P2;Temp;Humidity;BMP_temperature;BMP_pressure;BME280_temperature;BME280_humidity;BME280_pressure;Samples;Min_cycle;Max_cycle;Signal;HPM_P1;HPM_P2
2024/04/16 00:00:43;;;;;;;;;;;5.80;99.90;;;;;;5439895;26;19928;-53
2024/04/16 00:03:09;;;;;;;;;;;5.70;99.90;;;;;;5441497;26;19935;-55
2024/04/16 00:05:34;;;;;;;;;;;5.70;99.90;;;;;;5443669;26;19940;-54
2024/04/16 00:08:00;;;;;;;;;;;5.70;99.90;;;;;;5437636;26;19928;-55
2024/04/16 00:10:26;;;;;;;;;;;5.70;99.90;;;;;;5444983;26;19929;-56
2024/04/16 00:12:52;;;;;;;;;;;5.70;99.90;;;;;;5439245;26;20359;-55
2024/04/16 00:15:18;;;;;;;;;;;5.80;99.90;;;;;;5434556;26;19932;-53
2024/04/16 00:17:44;;;;;;;;;;;5.70;99.90;;;;;;5440613;26;20386;-55
2024/04/16 00:20:10;;;;;;;;;;;5.70;99.90;;;;;;5448404;26;20321;-55
2024/04/16 00:22:38;;;;;;;;;;;5.70;99.90;;;;;;5451488;26;19929;-53
2024/04/16 00:25:04;;;;;;;;;;;5.70;99.90;;;;;;5446203;26;20261;-55
2024/04/16 00:27:30;;;;;;;;;;;5.70;99.90;;;;;;5437216;26;20270;-56
2024/04/16 00:29:59;;;;;;;;;;;5.70;99.90;;;;;;5441686;26;19932;-53
2024/04/16 00:32:25;;;;;;;;;;;5.60;99.90;;;;;;5442095;26;19968;-55
2024/04/16 00:34:50;;;;;;;;;;;5.60;99.90;;;;;;5440159;26;19932;-53
2024/04/16 00:37:16;;;;;;;;;;;5.60;99.90;;;;;;5445873;26;20435;-55
2024/04/16 00:39:42;;;;;;;;;;;5.60;99.90;;;;;;5445682;26;19932;-53
2024/04/16 00:42:08;;;;;;;;;;;5.60;99.90;;;;;;5436555;26;19944;-53
2024/04/16 00:44:34;;;;;;;;;;;5.50;99.90;;;;;;5440302;26;20014;-55
2024/04/16 00:47:00;;;;;;;;;;;5.60;99.90;;;;;;5446974;26;19929;-54
2024/04/16 00:49:26;;;;;;;;;;;5.50;99.90;;;;;;5441331;26;19939;-55
2024/04/16 00:51:52;;;;;;;;;;;5.60;99.90;;;;;;5440111;26;20371;-55
2024/04/16 00:54:18;;;;;;;;;;;5.70;99.90;;;;;;5447678;26;19928;-54
2024/04/16 00:56:44;;;;;;;;;;;5.70;99.90;;;;;;5444792;26;19935;-54
2024/04/16 00:59:25;;;;;;;;;;;5.80;99.90;;;;;;5444930;26;19944;-55
2024/04/16 01:01:54;;;;;;;;;;;5.80;99.90;;;;;;5459532;26;19943;-55
2024/04/16 01:04:20;;;;;;;;;;;5.80;99.90;;;;;;5439680;26;19956;-55
2024/04/16 01:06:46;;;;;;;;;;;5.70;99.90;;;;;;5441682;26;19943;-55
2024/04/16 01:09:13;;;;;;;;;;;5.70;99.90;;;;;;5443740;26;20430;-55
2024/04/16 01:11:39;;;;;;;;;;;5.70;99.90;;;;;;5443093;26;19995;-54
2024/04/16 01:14:05;;;;;;;;;;;5.60;99.90;;;;;;5444235;26;19937;-55
2024/04/16 01:16:30;;;;;;;;;;;5.60;99.90;;;;;;5440614;26;19929;-55
2024/04/16 01:18:56;;;;;;;;;;;5.50;99.90;;;;;;5435761;26;20002;-54
2024/04/16 01:21:22;;;;;;;;;;;5.50;99.90;;;;;;5439758;26;20484;-55
2024/04/16 01:23:48;;;;;;;;;;;5.50;99.90;;;;;;5439625;26;19936;-54
2024/04/16 01:26:13;;;;;;;;;;;5.50;99.90;;;;;;5448684;26;19928;-54
2024/04/16 01:28:39;;;;;;;;;;;5.50;99.90;;;;;;5451867;26;20009;-54
2024/04/16 01:31:05;;;;;;;;;;;5.50;99.90;;;;;;5444526;26;20393;-54
2024/04/16 01:33:30;;;;;;;;;;;5.50;99.90;;;;;;5447214;26;19928;-54
2024/04/16 01:35:56;;;;;;;;;;;5.50;99.90;;;;;;5444271;26;19928;-54
2024/04/16 01:38:22;;;;;;;;;;;5.40;99.90;;;;;;5448826;26;19952;-55
2024/04/16 01:40:47;;;;;;;;;;;5.40;99.90;;;;;;5444599;26;19932;-55
2024/04/16 01:43:13;;;;;;;;;;;5.30;99.90;;;;;;5446428;26;19936;-53
2024/04/16 01:45:40;;;;;;;;;;;5.30;99.90;;;;;;5441538;26;19928;-55
2024/04/16 01:48:05;;;;;;;;;;;5.40;99.90;;;;;;5454000;26;20370;-54
2024/04/16 01:50:31;;;;;;;;;;;5.30;99.90;;;;;;5444717;26;20464;-54
2024/04/16 01:52:57;;;;;;;;;;;5.30;99.90;;;;;;5444703;26;20420;-55
2024/04/16 01:55:23;;;;;;;;;;;5.30;99.90;;;;;;5441180;26;19935;-54
2024/04/16 01:57:49;;;;;;;;;;;5.40;99.90;;;;;;5436376;26;19928;-54
2024/04/16 02:00:14;;;;;;;;;;;5.40;99.90;;;;;;5451700;26;19928;-55
2024/04/16 02:02:40;;;;;;;;;;;5.40;99.90;;;;;;5454528;26;19940;-55
2024/04/16 02:05:06;;;;;;;;;;;5.40;99.90;;;;;;5455636;26;20017;-54
2024/04/16 02:07:35;;;;;;;;;;;5.40;99.90;;;;;;5439427;26;19928;-54
2024/04/16 02:10:01;;;;;;;;;;;5.40;99.90;;;;;;5451288;26;19973;-55
2024/04/16 02:12:27;;;;;;;;;;;5.40;99.90;;;;;;5427537;26;19932;-54
2024/04/16 02:14:52;;;;;;;;;;;5.40;99.90;;;;;;5451125;26;19928;-55
2024/04/16 02:17:20;;;;;;;;;;;5.50;99.90;;;;;;5438364;26;20059;-54
2024/04/16 02:19:46;;;;;;;;;;;5.40;99.90;;;;;;5434331;26;20021;-54
2024/04/16 02:22:12;;;;;;;;;;;5.50;99.90;;;;;;5440031;26;20368;-55
2024/04/16 02:24:38;;;;;;;;;;;5.50;99.90;;;;;;5428287;26;19940;-54
2024/04/16 02:27:03;;;;;;;;;;;5.50;99.90;;;;;;5445946;26;20285;-54
2024/04/16 02:29:29;;;;;;;;;;;5.50;99.90;;;;;;5448125;26;20268;-55
2024/04/16 02:31:55;;;;;;;;;;;5.50;99.90;;;;;;5454367;26;19928;-55
2024/04/16 02:34:21;;;;;;;;;;;5.50;99.90;;;;;;5452172;26;19932;-54
2024/04/16 02:36:47;;;;;;;;;;;5.60;99.90;;;;;;5441214;26;20370;-55
2024/04/16 02:39:12;;;;;;;;;;;5.50;99.90;;;;;;5449180;26;20008;-56
2024/04/16 02:41:38;;;;;;;;;;;5.60;99.90;;;;;;5444614;26;19937;-55
2024/04/16 02:44:04;;;;;;;;;;;5.50;99.90;;;;;;5441961;26;19932;-55
2024/04/16 02:46:30;;;;;;;;;;;5.50;99.90;;;;;;5442861;26;20002;-55
2024/04/16 02:48:56;;;;;;;;;;;5.60;99.90;;;;;;5437924;26;20263;-54
2024/04/16 02:51:22;;;;;;;;;;;5.50;99.90;;;;;;5450608;26;19936;-55
2024/04/16 02:53:48;;;;;;;;;;;5.60;99.90;;;;;;5433042;26;19929;-56
2024/04/16 02:56:13;;;;;;;;;;;5.60;99.90;;;;;;5432394;26;20005;-56
2024/04/16 02:58:39;;;;;;;;;;;5.70;99.90;;;;;;5453969;26;19932;-56
2024/04/16 03:01:05;;;;;;;;;;;5.60;99.90;;;;;;5447647;26;19928;-56
2024/04/16 03:03:34;;;;;;;;;;;5.70;99.90;;;;;;5461603;26;20015;-55
2024/04/16 03:06:00;;;;;;;;;;;5.70;99.90;;;;;;5447491;26;19928;-54
2024/04/16 03:08:26;;;;;;;;;;;5.80;99.90;;;;;;5442408;26;20039;-55
2024/04/16 03:11:12;;;;;;;;;;;5.70;99.90;;;;;;5435590;26;19973;-54
2024/04/16 03:13:37;;;;;;;;;;;5.80;99.90;;;;;;5441667;26;19929;-54
2024/04/16 03:16:09;;;;;;;;;;;5.70;99.90;;;;;;5438511;26;19935;-54
2024/04/16 03:18:35;;;;;;;;;;;5.70;99.90;;;;;;5435312;26;19928;-55
2024/04/16 03:21:01;;;;;;;;;;;5.80;99.90;;;;;;5431640;26;19928;-54
2024/04/16 03:23:27;;;;;;;;;;;6.00;99.90;;;;;;5437452;26;19940;-54
2024/04/16 03:25:52;;;;;;;;;;;5.90;99.90;;;;;;5435183;26;19940;-54
2024/04/16 03:28:18;;;;;;;;;;;5.90;99.90;;;;;;5444719;26;19929;-55
2024/04/16 03:30:46;;;;;;;;;;;5.90;99.90;;;;;;5445637;26;20510;-58
2024/04/16 03:33:12;;;;;;;;;;;5.80;99.90;;;;;;5443147;26;19928;-55
2024/04/16 03:35:57;;;;;;;;;;;5.80;99.90;;;;;;5446575;26;20480;-55
2024/04/16 03:38:23;;;;;;;;;;;5.80;99.90;;;;;;5450381;26;19940;-55
2024/04/16 03:40:56;;;;;;;;;;;5.90;99.90;;;;;;5436654;26;20415;-54
2024/04/16 03:43:22;;;;;;;;;;;5.90;99.90;;;;;;5444502;26;20469;-54
2024/04/16 03:45:51;;;;;;;;;;;5.90;99.90;;;;;;5434210;26;19928;-55
2024/04/16 03:48:17;;;;;;;;;;;5.90;99.90;;;;;;5435184;26;20377;-55
2024/04/16 03:50:43;;;;;;;;;;;6.00;99.90;;;;;;5440879;26;19981;-54
2024/04/16 03:53:09;;;;;;;;;;;6.00;99.90;;;;;;5447341;26;20268;-54
2024/04/16 03:55:38;;;;;;;;;;;6.00;99.90;;;;;;5456160;26;19939;-54
2024/04/16 03:58:03;;;;;;;;;;;6.10;99.90;;;;;;5438693;26;20019;-55
2024/04/16 04:03:16;;;;;;;;;;;6.10;99.90;;;;;;5422400;26;19928;-54
2024/04/16 04:05:47;;;;;;;;;;;6.10;99.90;;;;;;5435355;26;20451;-55
2024/04/16 04:08:13;;;;;;;;;;;6.10;99.90;;;;;;5452524;26;19987;-54
2024/04/16 04:10:39;;;;;;;;;;;6.10;99.90;;;;;;5437827;26;19928;-55
2024/04/16 04:13:05;;;;;;;;;;;6.10;99.90;;;;;;5438935;26;19928;-55
2024/04/16 04:15:31;;;;;;;;;;;6.10;99.90;;;;;;5437686;26;19947;-54
2024/04/16 04:17:57;;;;;;;;;;;6.10;99.90;;;;;;5434938;26;19941;-55
2024/04/16 04:20:23;;;;;;;;;;;6.10;99.90;;;;;;5435591;26;19929;-55
2024/04/16 04:22:48;;;;;;;;;;;6.10;99.90;;;;;;5427182;26;19937;-55
2024/04/16 04:25:14;;;;;;;;;;;6.10;99.90;;;;;;5434861;26;20374;-55
2024/04/16 04:27:43;;;;;;;;;;;6.10;99.90;;;;;;5453232;26;19928;-55
2024/04/16 04:30:09;;;;;;;;;;;6.10;99.90;;;;;;5454284;26;19935;-55
2024/04/16 04:32:35;;;;;;;;;;;6.20;99.90;;;;;;5447764;26;19936;-55
2024/04/16 04:35:01;;;;;;;;;;;6.10;99.90;;;;;;5444999;26;19942;-54
2024/04/16 04:37:27;;;;;;;;;;;6.20;99.90;;;;;;5440294;26;19936;-54
2024/04/16 04:39:53;;;;;;;;;;;6.20;99.90;;;;;;5443352;26;19988;-55
2024/04/16 04:42:19;;;;;;;;;;;6.10;99.90;;;;;;5443832;26;20270;-55
2024/04/16 04:44:45;;;;;;;;;;;6.20;99.90;;;;;;5431154;26;20351;-55
2024/04/16 04:47:12;;;;;;;;;;;6.10;99.90;;;;;;5436867;26;19969;-55
2024/04/16 04:49:38;;;;;;;;;;;6.20;99.90;;;;;;5444371;26;20005;-54
2024/04/16 04:52:04;;;;;;;;;;;6.20;99.90;;;;;;5435572;26;19964;-54
2024/04/16 04:54:30;;;;;;;;;;;6.30;99.90;;;;;;5435960;26;19929;-56
2024/04/16 04:56:56;;;;;;;;;;;6.30;99.90;;;;;;5441052;26;19928;-54
2024/04/16 04:59:21;;;;;;;;;;;6.20;99.90;;;;;;5435986;26;20028;-56
2024/04/16 05:01:47;;;;;;;;;;;6.30;99.90;;;;;;5442549;26;20319;-56
2024/04/16 05:04:13;;;;;;;;;;;6.10;99.90;;;;;;5447572;26;20017;-56
2024/04/16 05:06:39;;;;;;;;;;;6.20;99.90;;;;;;5447542;26;19929;-56
2024/04/16 05:09:05;;;;;;;;;;;6.30;99.90;;;;;;5446799;26;19943;-56
2024/04/16 05:11:31;;;;;;;;;;;6.30;99.90;;;;;;5446351;26;20393;-56
2024/04/16 05:13:57;;;;;;;;;;;6.20;99.90;;;;;;5447130;26;20374;-56
2024/04/16 05:16:23;;;;;;;;;;;6.30;99.90;;;;;;5444727;26;20772;-55
2024/04/16 05:18:49;;;;;;;;;;;6.20;99.90;;;;;;5443359;26;19940;-54
2024/04/16 05:21:15;;;;;;;;;;;6.20;99.90;;;;;;5445092;26;19939;-55
2024/04/16 05:23:40;;;;;;;;;;;6.20;99.90;;;;;;5438308;26;20269;-55
2024/04/16 05:26:07;;;;;;;;;;;6.20;99.90;;;;;;5450034;26;20489;-57
2024/04/16 05:28:32;;;;;;;;;;;6.30;99.90;;;;;;5448974;26;19932;-54
2024/04/16 05:30:59;;;;;;;;;;;6.30;99.90;;;;;;5451854;26;19928;-54
2024/04/16 05:33:28;;;;;;;;;;;6.20;99.90;;;;;;5448635;26;19944;-55
2024/04/16 05:35:53;;;;;;;;;;;6.30;99.90;;;;;;5446735;26;19936;-56
2024/04/16 05:38:19;;;;;;;;;;;6.30;99.90;;;;;;5453652;26;19940;-55
2024/04/16 05:40:45;;;;;;;;;;;6.30;99.90;;;;;;5445139;26;20312;-55
2024/04/16 05:43:11;;;;;;;;;;;6.20;99.90;;;;;;5438412;26;20474;-55
2024/04/16 05:45:36;;;;;;;;;;;6.20;99.90;;;;;;5446625;26;19940;-55
2024/04/16 05:48:02;;;;;;;;;;;6.20;99.90;;;;;;5447426;26;19936;-55
2024/04/16 05:50:29;;;;;;;;;;;6.20;99.90;;;;;;5447321;26;20012;-55
2024/04/16 05:52:55;;;;;;;;;;;6.30;99.90;;;;;;5447809;26;20392;-56
2024/04/16 05:55:21;;;;;;;;;;;6.20;99.90;;;;;;5453257;26;20008;-55
2024/04/16 05:57:47;;;;;;;;;;;6.10;99.90;;;;;;5447769;26;19973;-54
2024/04/16 06:00:13;;;;;;;;;;;6.20;99.90;;;;;;5441121;26;20364;-56
2024/04/16 06:02:39;;;;;;;;;;;6.20;99.90;;;;;;5447844;26;19933;-56
2024/04/16 06:05:05;;;;;;;;;;;6.10;99.90;;;;;;5450767;26;20366;-56
2024/04/16 06:07:31;;;;;;;;;;;6.10;99.90;;;;;;5447513;26;19929;-56
2024/04/16 06:09:56;;;;;;;;;;;6.20;99.90;;;;;;5451081;26;19985;-56
2024/04/16 06:12:22;;;;;;;;;;;6.00;99.90;;;;;;5452308;26;20415;-55
2024/04/16 06:14:48;;;;;;;;;;;6.10;99.90;;;;;;5453748;26;19940;-56
2024/04/16 06:17:14;;;;;;;;;;;6.10;99.90;;;;;;5450508;26;19935;-54
2024/04/16 06:19:43;;;;;;;;;;;6.00;99.90;;;;;;5443193;26;19935;-55
2024/04/16 06:22:09;;;;;;;;;;;6.00;99.90;;;;;;5442819;26;19984;-55
2024/04/16 06:24:35;;;;;;;;;;;6.10;99.90;;;;;;5428602;26;19940;-55
2024/04/16 06:27:01;;;;;;;;;;;6.00;99.90;;;;;;5447064;26;19935;-55
2024/04/16 06:29:27;;;;;;;;;;;6.00;99.90;;;;;;5449696;26;19937;-55
2024/04/16 06:31:53;;;;;;;;;;;6.00;99.90;;;;;;5440997;26;19952;-55
2024/04/16 06:34:18;;;;;;;;;;;6.10;99.90;;;;;;5450127;26;19939;-55
2024/04/16 06:36:44;;;;;;;;;;;6.00;99.90;;;;;;5450581;26;20285;-55
2024/04/16 06:39:10;;;;;;;;;;;6.00;99.90;;;;;;5447391;26;19936;-55
2024/04/16 06:41:36;;;;;;;;;;;6.00;99.90;;;;;;5433895;26;19935;-55
2024/04/16 06:44:01;;;;;;;;;;;5.90;99.90;;;;;;5432689;26;19943;-55
2024/04/16 06:46:27;;;;;;;;;;;6.00;99.90;;;;;;5430164;26;19936;-55
2024/04/16 06:48:53;;;;;;;;;;;6.20;99.90;;;;;;5436277;26;19928;-55
2024/04/16 06:51:19;;;;;;;;;;;6.50;99.90;;;;;;5445946;26;19993;-55
2024/04/16 06:53:45;;;;;;;;;;;6.90;99.90;;;;;;5446733;26;19937;-56
2024/04/16 06:56:11;;;;;;;;;;;7.40;99.90;;;;;;5447329;26;20662;-55
2024/04/16 06:58:36;;;;;;;;;;;7.80;99.90;;;;;;5444424;26;19936;-56
2024/04/16 07:01:02;;;;;;;;;;;8.00;99.90;;;;;;5448651;26;19936;-55
2024/04/16 07:03:28;;;;;;;;;;;8.40;99.90;;;;;;5445242;26;20272;-55
2024/04/16 07:05:54;;;;;;;;;;;8.50;99.90;;;;;;5447447;26;20389;-55
2024/04/16 07:08:20;;;;;;;;;;;8.90;99.90;;;;;;5451008;26;20397;-55
2024/04/16 07:10:46;;;;;;;;;;;9.30;99.90;;;;;;5441280;26;20348;-55
2024/04/16 07:13:12;;;;;;;;;;;9.70;99.90;;;;;;5443873;26;19940;-55
2024/04/16 07:15:38;;;;;;;;;;;10.00;99.90;;;;;;5447132;26;19935;-55
2024/04/16 07:18:04;;;;;;;;;;;10.10;99.90;;;;;;5447678;26;19929;-56
2024/04/16 07:20:30;;;;;;;;;;;10.20;99.90;;;;;;5445766;26;19932;-55
2024/04/16 07:22:55;;;;;;;;;;;10.10;99.90;;;;;;5445364;26;20317;-55
2024/04/16 07:25:21;;;;;;;;;;;9.90;99.90;;;;;;5448229;26;20518;-55
2024/04/16 07:27:47;;;;;;;;;;;9.80;99.90;;;;;;5449286;26;20647;-55
2024/04/16 07:30:13;;;;;;;;;;;9.80;99.90;;;;;;5445584;26;19939;-55
2024/04/16 07:32:39;;;;;;;;;;;9.70;99.90;;;;;;5449102;26;20289;-56
2024/04/16 07:35:05;;;;;;;;;;;9.30;99.90;;;;;;5450443;26;19928;-55
2024/04/16 07:37:31;;;;;;;;;;;9.20;99.90;;;;;;5445691;26;19936;-55
2024/04/16 07:39:57;;;;;;;;;;;9.00;99.90;;;;;;5455895;26;19942;-56
2024/04/16 07:42:22;;;;;;;;;;;8.80;99.90;;;;;;5442114;26;19928;-56
2024/04/16 07:44:48;;;;;;;;;;;8.70;99.90;;;;;;5442019;26;19936;-56
2024/04/16 07:47:14;;;;;;;;;;;8.90;99.90;;;;;;5444028;26;19937;-55
2024/04/16 07:49:40;;;;;;;;;;;8.90;99.90;;;;;;5444976;26;19940;-55
2024/04/16 07:52:06;;;;;;;;;;;9.10;99.90;;;;;;5453432;26;19931;-56
2024/04/16 07:54:32;;;;;;;;;;;9.20;99.90;;;;;;5447480;26;20024;-55
2024/04/16 07:56:59;;;;;;;;;;;9.20;99.90;;;;;;5452255;26;19935;-55
2024/04/16 07:59:24;;;;;;;;;;;9.20;99.90;;;;;;5449784;26;20442;-55
2024/04/16 08:01:50;;;;;;;;;;;9.30;99.90;;;;;;5452266;26;20394;-56
2024/04/16 08:04:16;;;;;;;;;;;9.20;99.90;;;;;;5448409;26;20431;-56
2024/04/16 08:06:42;;;;;;;;;;;9.00;99.90;;;;;;5444748;26;19928;-56
2024/04/16 08:09:08;;;;;;;;;;;9.00;99.90;;;;;;5453639;26;19937;-56
2024/04/16 08:11:33;;;;;;;;;;;9.00;99.90;;;;;;5447070;26;19938;-55
2024/04/16 08:13:59;;;;;;;;;;;9.00;99.90;;;;;;5443400;26;20286;-55
2024/04/16 08:16:25;;;;;;;;;;;9.00;99.90;;;;;;5427511;26;20438;-57
2024/04/16 08:18:51;;;;;;;;;;;9.10;99.90;;;;;;5442767;26;19995;-57
2024/04/16 08:21:17;;;;;;;;;;;9.00;99.90;;;;;;5444436;26;19927;-57
2024/04/16 08:23:42;;;;;;;;;;;9.10;99.90;;;;;;5449928;26;20005;-54
2024/04/16 08:26:08;;;;;;;;;;;9.20;99.90;;;;;;5441243;26;20707;-55
2024/04/16 08:28:34;;;;;;;;;;;9.20;99.90;;;;;;5449273;26;19943;-56
2024/04/16 08:31:00;;;;;;;;;;;9.10;99.90;;;;;;5445366;26;19928;-56
2024/04/16 08:33:26;;;;;;;;;;;9.30;99.90;;;;;;5447370;26;19943;-57
2024/04/16 08:35:52;;;;;;;;;;;9.20;99.90;;;;;;5444793;26;20256;-57
2024/04/16 08:38:19;;;;;;;;;;;9.40;99.90;;;;;;5446202;26;19940;-57
2024/04/16 08:40:47;;;;;;;;;;;9.40;99.90;;;;;;5447201;26;19977;-56
2024/04/16 08:43:13;;;;;;;;;;;9.70;99.90;;;;;;5449898;26;19929;-57
2024/04/16 08:45:42;;;;;;;;;;;9.90;99.90;;;;;;5453459;26;21630;-56
2024/04/16 08:48:08;;;;;;;;;;;9.90;99.90;;;;;;5449507;26;19936;-57
2024/04/16 08:50:35;;;;;;;;;;;9.70;99.90;;;;;;5450582;26;20371;-56
2024/04/16 08:53:02;;;;;;;;;;;9.60;99.90;;;;;;5479084;26;19933;-56
2024/04/16 08:55:29;;;;;;;;;;;9.50;99.90;;;;;;5454620;26;19936;-56
2024/04/16 08:57:55;;;;;;;;;;;9.40;99.90;;;;;;5453833;26;19929;-56
2024/04/16 09:00:21;;;;;;;;;;;9.30;99.90;;;;;;5453173;26;20336;-56
2024/04/16 09:02:46;;;;;;;;;;;9.20;99.90;;;;;;5451985;26;19948;-56
2024/04/16 09:05:13;;;;;;;;;;;9.30;99.90;;;;;;5454257;26;19928;-56
2024/04/16 09:07:41;;;;;;;;;;;9.30;99.90;;;;;;5454006;26;19973;-56
2024/04/16 09:10:13;;;;;;;;;;;9.30;99.90;;;;;;5455060;26;19928;-56
2024/04/16 09:12:40;;;;;;;;;;;9.30;99.90;;;;;;5453668;26;20371;-57
2024/04/16 09:15:05;;;;;;;;;;;9.40;99.90;;;;;;5449526;26;19948;-56
2024/04/16 09:17:31;;;;;;;;;;;9.40;99.90;;;;;;5450297;26;20363;-57
2024/04/16 09:20:00;;;;;;;;;;;9.40;99.90;;;;;;5450899;26;20346;-56
2024/04/16 09:22:26;;;;;;;;;;;9.50;99.90;;;;;;5450828;26;19933;-56
2024/04/16 09:24:52;;;;;;;;;;;9.70;99.90;;;;;;5449754;26;19936;-56
2024/04/16 09:27:17;;;;;;;;;;;10.00;99.90;;;;;;5452197;26;19928;-57
2024/04/16 09:29:44;;;;;;;;;;;10.00;99.90;;;;;;5455839;26;19935;-56
2024/04/16 09:32:10;;;;;;;;;;;10.10;99.90;;;;;;5451949;26;20024;-55
2024/04/16 09:34:41;;;;;;;;;;;10.30;99.90;;;;;;5451308;26;19932;-55
2024/04/16 09:37:06;;;;;;;;;;;10.30;99.90;;;;;;5449455;26;20273;-55
2024/04/16 09:39:32;;;;;;;;;;;10.50;99.90;;;;;;5452138;26;19939;-55
2024/04/16 09:41:58;;;;;;;;;;;10.70;99.90;;;;;;5450824;26;20434;-57
2024/04/16 09:44:24;;;;;;;;;;;10.90;99.90;;;;;;5446886;26;19936;-55
2024/04/16 09:46:50;;;;;;;;;;;11.30;99.90;;;;;;5448294;26;19935;-57
2024/04/16 09:49:16;;;;;;;;;;;11.50;99.90;;;;;;5449648;26;19932;-54
2024/04/16 09:51:42;;;;;;;;;;;11.60;99.90;;;;;;5441714;26;19947;-54
2024/04/16 09:54:11;;;;;;;;;;;11.70;99.90;;;;;;5444628;26;20867;-54
2024/04/16 09:56:37;;;;;;;;;;;11.60;99.90;;;;;;5453572;26;19928;-54
2024/04/16 09:59:05;;;;;;;;;;;11.50;99.90;;;;;;5452691;26;19992;-55
2024/04/16 10:01:32;;;;;;;;;;;11.20;99.90;;;;;;5442466;26;20351;-55
2024/04/16 10:03:58;;;;;;;;;;;11.20;99.90;;;;;;5445332;26;20005;-55
2024/04/16 10:06:24;;;;;;;;;;;11.30;99.90;;;;;;5450147;26;19936;-54
2024/04/16 10:08:50;;;;;;;;;;;11.40;99.90;;;;;;5450976;26;19928;-55
2024/04/16 10:11:17;;;;;;;;;;;11.30;99.90;;;;;;5446867;26;19987;-55
2024/04/16 10:13:43;;;;;;;;;;;11.30;99.90;;;;;;5445830;26;20517;-55
2024/04/16 10:16:12;;;;;;;;;;;11.20;99.90;;;;;;5437060;26;20329;-55
2024/04/16 10:18:38;;;;;;;;;;;11.30;99.90;;;;;;5434124;26;19928;-54
2024/04/16 10:21:04;;;;;;;;;;;11.20;99.90;;;;;;5436594;26;20026;-55
2024/04/16 10:23:29;;;;;;;;;;;11.20;99.90;;;;;;5445255;26;19940;-56
2024/04/16 10:25:56;;;;;;;;;;;11.40;99.90;;;;;;5451026;26;19935;-55
2024/04/16 10:28:26;;;;;;;;;;;11.30;99.90;;;;;;5447623;26;20385;-56
2024/04/16 10:31:02;;;;;;;;;;;11.20;99.90;;;;;;5436891;26;20545;-55
2024/04/16 10:33:31;;;;;;;;;;;11.20;99.90;;;;;;5446398;26;19936;-55
2024/04/16 10:35:57;;;;;;;;;;;11.40;99.90;;;;;;5440646;26;20510;-55
2024/04/16 10:38:23;;;;;;;;;;;11.40;99.90;;;;;;5446916;26;20495;-55
2024/04/16 10:40:58;;;;;;;;;;;11.50;99.90;;;;;;5449037;26;20047;-55
2024/04/16 10:43:24;;;;;;;;;;;11.60;99.90;;;;;;5441181;26;19934;-55
2024/04/16 10:45:51;;;;;;;;;;;11.70;99.90;;;;;;5445346;26;19933;-55
2024/04/16 10:48:22;;;;;;;;;;;11.80;99.90;;;;;;5447893;26;19977;-55
2024/04/16 10:50:48;;;;;;;;;;;11.80;99.90;;;;;;5446281;26;20383;-56
2024/04/16 10:53:15;;;;;;;;;;;11.60;99.90;;;;;;5440509;26;19983;-55
2024/04/16 10:55:41;;;;;;;;;;;11.70;99.90;;;;;;5445115;26;19936;-55
2024/04/16 10:58:10;;;;;;;;;;;11.70;99.90;;;;;;5440611;26;19984;-55
2024/04/16 11:00:36;;;;;;;;;;;12.00;99.90;;;;;;5444771;26;19964;-55
2024/04/16 11:03:02;;;;;;;;;;;12.30;99.90;;;;;;5442043;26;19932;-56
2024/04/16 11:05:28;;;;;;;;;;;12.80;99.90;;;;;;5449586;26;20340;-56
2024/04/16 11:07:53;;;;;;;;;;;12.70;99.90;;;;;;5442529;26;19939;-55
2024/04/16 11:10:19;;;;;;;;;;;13.10;99.90;;;;;;5444553;26;20279;-59
2024/04/16 11:12:45;;;;;;;;;;;13.00;99.90;;;;;;5448126;26;20292;-56
2024/04/16 11:15:11;;;;;;;;;;;13.00;99.90;;;;;;5438112;26;19929;-56
2024/04/16 11:17:38;;;;;;;;;;;12.90;99.90;;;;;;5441273;26;19987;-55
2024/04/16 11:20:04;;;;;;;;;;;12.80;99.90;;;;;;5440900;26;20144;-56
2024/04/16 11:22:31;;;;;;;;;;;13.00;99.90;;;;;;5433240;26;19928;-54
2024/04/16 11:24:56;;;;;;;;;;;12.90;99.90;;;;;;5442062;26;20065;-55
2024/04/16 11:27:22;;;;;;;;;;;12.50;99.90;;;;;;5440020;26;19928;-55
2024/04/16 11:29:49;;;;;;;;;;;12.80;99.90;;;;;;5446701;26;20742;-55
2024/04/16 11:32:15;;;;;;;;;;;13.30;99.90;;;;;;5441403;26;20940;-55
2024/04/16 11:34:41;;;;;;;;;;;13.40;99.90;;;;;;5446183;26;19929;-55
2024/04/16 11:37:07;;;;;;;;;;;13.90;99.90;;;;;;5445302;26;20514;-56
2024/04/16 11:39:33;;;;;;;;;;;14.10;99.90;;;;;;5439315;26;20331;-55
2024/04/16 11:41:59;;;;;;;;;;;14.30;99.90;;;;;;5445160;26;19928;-55
2024/04/16 11:44:25;;;;;;;;;;;14.50;99.90;;;;;;5446030;26;20340;-55
2024/04/16 11:46:51;;;;;;;;;;;14.60;99.90;;;;;;5443062;26;19963;-55
2024/04/16 11:49:16;;;;;;;;;;;14.50;99.90;;;;;;5441151;26;19935;-55
2024/04/16 11:51:42;;;;;;;;;;;14.30;99.90;;;;;;5445422;26;19956;-55
2024/04/16 11:54:08;;;;;;;;;;;14.10;99.90;;;;;;5451912;26;19937;-55
2024/04/16 11:56:34;;;;;;;;;;;13.90;99.90;;;;;;5441992;26;20379;-54
2024/04/16 11:59:01;;;;;;;;;;;14.00;99.90;;;;;;5439778;26;20057;-54
2024/04/16 12:01:27;;;;;;;;;;;13.70;99.90;;;;;;5448700;26;19944;-55
2024/04/16 12:03:53;;;;;;;;;;;13.40;99.90;;;;;;5443598;26;19940;-55
2024/04/16 12:06:18;;;;;;;;;;;13.30;99.90;;;;;;5442584;26;19934;-55
2024/04/16 12:08:44;;;;;;;;;;;13.30;99.90;;;;;;5444755;26;19972;-53
2024/04/16 12:11:11;;;;;;;;;;;13.30;99.90;;;;;;5432347;26;19928;-54
2024/04/16 12:13:36;;;;;;;;;;;13.10;99.90;;;;;;5438085;26;19943;-54
2024/04/16 12:16:02;;;;;;;;;;;13.00;99.90;;;;;;5441905;26;19928;-54
2024/04/16 12:18:28;;;;;;;;;;;12.80;99.90;;;;;;5440339;26;20042;-54
2024/04/16 12:20:54;;;;;;;;;;;12.80;99.90;;;;;;5449730;26;20283;-55
2024/04/16 12:23:20;;;;;;;;;;;12.60;99.90;;;;;;5441640;26;20016;-55
2024/04/16 12:25:45;;;;;;;;;;;12.60;99.90;;;;;;5442531;26;19983;-55
2024/04/16 12:28:11;;;;;;;;;;;12.70;99.90;;;;;;5448559;26;19935;-55
2024/04/16 12:30:37;;;;;;;;;;;12.70;99.90;;;;;;5447253;26;19929;-55
2024/04/16 12:33:02;;;;;;;;;;;12.70;99.90;;;;;;5451636;26;20722;-55
2024/04/16 12:35:28;;;;;;;;;;;12.70;99.90;;;;;;5445782;26;19936;-56
2024/04/16 12:37:54;;;;;;;;;;;12.70;99.90;;;;;;5446781;26;19929;-55
2024/04/16 12:40:20;;;;;;;;;;;12.60;99.90;;;;;;5446516;26;20337;-54
2024/04/16 12:42:45;;;;;;;;;;;12.60;99.90;;;;;;5453953;26;19944;-55
2024/04/16 12:45:11;;;;;;;;;;;12.60;99.90;;;;;;5441008;26;19928;-55
2024/04/16 12:47:37;;;;;;;;;;;12.50;99.90;;;;;;5448980;26;19944;-55
2024/04/16 12:50:04;;;;;;;;;;;12.30;99.90;;;;;;5451314;26;20359;-55
2024/04/16 12:52:30;;;;;;;;;;;12.20;99.90;;;;;;5449187;26;19935;-56
2024/04/16 12:54:56;;;;;;;;;;;12.10;99.90;;;;;;5446533;26;19950;-55
2024/04/16 12:57:22;;;;;;;;;;;11.90;99.90;;;;;;5447590;26;19947;-55
2024/04/16 12:59:51;;;;;;;;;;;11.80;99.90;;;;;;5442061;26;19940;-54
2024/04/16 13:02:17;;;;;;;;;;;11.90;99.90;;;;;;5444305;26;19935;-56
2024/04/16 13:04:43;;;;;;;;;;;12.00;99.90;;;;;;5445042;26;20017;-55
2024/04/16 13:07:09;;;;;;;;;;;11.90;99.90;;;;;;5447761;26;20709;-56
2024/04/16 13:09:35;;;;;;;;;;;12.10;99.90;;;;;;5441429;26;19935;-56
2024/04/16 13:12:00;;;;;;;;;;;12.00;99.90;;;;;;5440164;26;20315;-54
2024/04/16 13:14:26;;;;;;;;;;;11.90;99.90;;;;;;5442890;26;19929;-55
2024/04/16 13:16:52;;;;;;;;;;;11.80;99.90;;;;;;5436055;26;20685;-56
2024/04/16 13:19:19;;;;;;;;;;;11.60;99.90;;;;;;5443624;26;19935;-56
2024/04/16 13:21:46;;;;;;;;;;;11.50;99.90;;;;;;5441028;26;19936;-56
2024/04/16 13:24:12;;;;;;;;;;;11.60;99.90;;;;;;5445957;26;20363;-54
2024/04/16 13:26:38;;;;;;;;;;;11.70;99.90;;;;;;5449865;26;19955;-54
2024/04/16 13:29:04;;;;;;;;;;;11.40;99.90;;;;;;5450128;26;19938;-55
2024/04/16 13:31:29;;;;;;;;;;;11.40;99.90;;;;;;5470006;26;19975;-55
2024/04/16 13:33:55;;;;;;;;;;;11.30;99.90;;;;;;5449519;26;20251;-55
2024/04/16 13:36:21;;;;;;;;;;;11.10;99.90;;;;;;5438973;26;19929;-56
2024/04/16 13:38:47;;;;;;;;;;;11.10;99.90;;;;;;5451305;26;19940;-56
2024/04/16 13:41:12;;;;;;;;;;;11.20;99.90;;;;;;5439517;26;19928;-55
2024/04/16 13:43:38;;;;;;;;;;;11.10;99.90;;;;;;5445618;26;20362;-55
2024/04/16 13:46:04;;;;;;;;;;;11.20;99.90;;;;;;5446611;26;19934;-56
2024/04/16 13:48:30;;;;;;;;;;;11.30;99.90;;;;;;5440886;26;19984;-56
2024/04/16 13:50:55;;;;;;;;;;;11.20;99.90;;;;;;5436420;26;19982;-55
2024/04/16 13:53:21;;;;;;;;;;;11.30;99.90;;;;;;5447089;26;20233;-56
2024/04/16 13:55:47;;;;;;;;;;;11.20;99.90;;;;;;5444551;26;19999;-55
2024/04/16 13:58:13;;;;;;;;;;;10.90;99.90;;;;;;5443312;26;19997;-56
2024/04/16 14:00:39;;;;;;;;;;;10.80;99.90;;;;;;5440560;26;19928;-55
2024/04/16 14:03:05;;;;;;;;;;;10.60;99.90;;;;;;5449708;26;19928;-55
2024/04/16 14:05:31;;;;;;;;;;;10.60;99.90;;;;;;5449254;26;19943;-56
2024/04/16 14:07:56;;;;;;;;;;;10.60;99.90;;;;;;5451649;26;19935;-55
2024/04/16 14:10:23;;;;;;;;;;;10.70;99.90;;;;;;5445639;26;20468;-54
2024/04/16 14:12:49;;;;;;;;;;;10.80;99.90;;;;;;5447340;26;20039;-54
2024/04/16 14:15:14;;;;;;;;;;;11.10;99.90;;;;;;5442880;26;19928;-55
2024/04/16 14:17:41;;;;;;;;;;;11.50;99.90;;;;;;5446858;26;19936;-55
2024/04/16 14:20:07;;;;;;;;;;;11.60;99.90;;;;;;5446226;26;19994;-56
2024/04/16 14:22:32;;;;;;;;;;;11.90;99.90;;;;;;5450286;26;19940;-55